Bennington, Minnesota
Current Conditions -  °F | °C
As of 6:54 PM on Tuesday 21 Oct 2014 (Local Time) from KRST Reporting Station
Clear Clear  
Wind Chill: 41°   Ceiling: Unl
Heat Index: 45°   Visibility: 10mi
Dew Point: 38°   Wind: 8mph
Humidity: 76%   Direction: 120°ESE
Pressure: 30.18"   Gusts: NA
Location:  43.7143°N, 92.5748°W
Report Text: KRST 212354Z 12007KT 10SM CLR 07/03 A3018 RMK AO2 SLP230 T00720033 10139 20072 53003
Loading
Personal Weather Stations






























Interactive Weather Map
Tropical Storm Tracking
New forecast layout! Learn more

10-Day Weather Forecast

Advertisements
Track Severe Weather on mobile